Time;durP1;ratioP1;P1;durP2;ratioP2;P2;SDS_P1;SDS_P2;PMS_P1;PMS_P2;Temp;Humidity;BMP_temperature;BMP_pressure;BME280_temperature;BME280_humidity;BME280_pressure;Samples;Min_cycle;Max_cycle;Signal;HPM_P1;HPM_P2
2022/07/14 00:02:27;;;;;;;0.00;0.00;;;21.20;99.90;;;;;;5072380;28;20195;-71
2022/07/14 00:04:54;;;;;;;0.00;0.00;;;21.20;99.90;;;;;;5091627;28;20206;-71
2022/07/14 00:07:20;;;;;;;0.00;0.00;;;21.10;99.90;;;;;;5089615;28;20200;-70
2022/07/14 00:09:47;;;;;;;0.00;0.00;;;21.10;99.90;;;;;;5069975;28;20209;-71
2022/07/14 00:12:14;;;;;;;0.00;0.00;;;21.00;99.90;;;;;;5088636;28;20206;-70
2022/07/14 00:14:42;;;;;;;0.00;0.00;;;21.00;99.90;;;;;;5070926;28;20775;-71
2022/07/14 00:17:09;;;;;;;0.00;0.00;;;20.90;99.90;;;;;;5084438;28;20256;-70
2022/07/14 00:19:37;;;;;;;0.00;0.00;;;20.90;99.90;;;;;;5073153;28;20194;-70
2022/07/14 00:22:04;;;;;;;0.00;0.00;;;20.90;99.90;;;;;;5070082;28;20193;-70
2022/07/14 00:24:32;;;;;;;0.00;0.00;;;20.90;99.90;;;;;;5090862;28;20298;-70
2022/07/14 00:26:59;;;;;;;0.00;0.00;;;20.90;99.90;;;;;;5070258;28;20209;-70
2022/07/14 00:29:25;;;;;;;0.00;0.00;;;20.80;99.90;;;;;;5089679;28;20280;-70
2022/07/14 00:31:52;;;;;;;0.00;0.00;;;20.80;99.90;;;;;;5070800;28;20259;-70
2022/07/14 00:34:19;;;;;;;0.00;0.00;;;20.80;99.90;;;;;;5086572;28;20217;-70
2022/07/14 00:36:47;;;;;;;0.00;0.00;;;20.70;99.90;;;;;;5069906;28;20236;-70
2022/07/14 00:39:15;;;;;;;0.00;0.00;;;20.60;99.90;;;;;;5082953;28;20205;-70
2022/07/14 00:41:42;;;;;;;0.00;0.00;;;20.60;99.90;;;;;;5069703;28;20209;-72
2022/07/14 00:44:09;;;;;;;0.00;0.00;;;20.40;99.90;;;;;;5089064;28;20740;-70
2022/07/14 00:46:38;;;;;;;0.00;0.00;;;20.30;99.90;;;;;;5086380;28;20741;-71
2022/07/14 00:49:05;;;;;;;0.00;0.00;;;20.30;99.90;;;;;;5084106;28;20210;-71
2022/07/14 00:51:32;;;;;;;0.00;0.00;;;20.20;99.90;;;;;;5074425;28;20363;-71
2022/07/14 00:54:00;;;;;;;0.00;0.00;;;20.20;99.90;;;;;;5069418;28;20218;-71
2022/07/14 00:56:27;;;;;;;0.00;0.00;;;20.00;99.90;;;;;;5068232;28;20217;-71
2022/07/14 00:58:54;;;;;;;0.00;0.00;;;20.00;99.90;;;;;;5070964;28;20194;-71
2022/07/14 01:01:22;;;;;;;0.00;0.00;;;19.90;99.90;;;;;;5070123;28;20206;-71
2022/07/14 01:03:49;;;;;;;0.00;0.00;;;19.80;99.90;;;;;;5069715;28;20317;-71
2022/07/14 01:06:16;;;;;;;0.00;0.00;;;19.70;99.90;;;;;;5086524;28;20263;-71
2022/07/14 01:08:43;;;;;;;0.00;0.00;;;;;;;;;;5070335;28;20297;-71
2022/07/14 01:11:12;;;;;;;0.00;0.00;;;19.60;99.90;;;;;;5085408;28;20202;-71
2022/07/14 01:13:39;;;;;;;0.00;0.00;;;19.40;99.90;;;;;;5068099;28;20226;-71
2022/07/14 01:16:06;;;;;;;0.00;0.00;;;;;;;;;;5068255;28;20198;-71
2022/07/14 01:18:34;;;;;;;0.00;0.00;;;;;;;;;;5084849;28;20279;-71
2022/07/14 01:21:01;;;;;;;0.00;0.00;;;19.30;99.90;;;;;;5076282;28;20740;-71
2022/07/14 01:23:29;;;;;;;0.00;0.00;;;19.20;99.90;;;;;;5084085;28;20266;-71
2022/07/14 01:25:58;;;;;;;0.00;0.00;;;19.10;99.90;;;;;;5072548;28;20202;-72
2022/07/14 01:28:24;;;;;;;0.00;0.00;;;19.10;99.90;;;;;;5067874;28;20267;-72
2022/07/14 01:30:52;;;;;;;0.00;0.00;;;19.10;99.90;;;;;;5077151;28;20594;-71
2022/07/14 01:33:19;;;;;;;0.00;0.00;;;19.00;99.90;;;;;;5065207;28;20202;-71
2022/07/14 01:35:46;;;;;;;0.00;0.00;;;18.90;99.90;;;;;;5069169;28;20202;-71
2022/07/14 01:38:13;;;;;;;0.00;0.00;;;18.80;99.90;;;;;;5075473;28;20229;-70
2022/07/14 01:40:41;;;;;;;0.00;0.00;;;18.70;99.90;;;;;;5088242;28;20190;-71
2022/07/14 01:43:09;;;;;;;0.00;0.00;;;18.60;99.90;;;;;;5073373;28;20230;-71
2022/07/14 01:45:36;;;;;;;0.00;0.00;;;18.60;99.90;;;;;;5070928;28;20222;-71
2022/07/14 01:48:04;;;;;;;0.00;0.00;;;;;;;;;;5071885;28;20201;-67
2022/07/14 01:50:32;;;;;;;0.00;0.00;;;18.60;99.90;;;;;;5070550;28;20741;-68
2022/07/14 01:52:59;;;;;;;0.00;0.00;;;18.50;99.90;;;;;;5083571;28;20191;-69
2022/07/14 01:55:26;;;;;;;0.00;0.00;;;18.40;99.90;;;;;;5068517;28;20225;-68
2022/07/14 01:57:54;;;;;;;0.00;0.00;;;;;;;;;;5071570;28;20245;-69
2022/07/14 02:00:22;;;;;;;0.00;0.00;;;;;;;;;;5063987;28;20275;-68
2022/07/14 02:02:59;;;;;;;0.00;0.00;;;;;;;;;;5071137;28;20198;-71
2022/07/14 02:05:27;;;;;;;0.00;0.00;;;;;;;;;;5073323;28;20237;-71
2022/07/14 02:07:55;;;;;;;0.00;0.00;;;;;;;;;;5065693;28;20230;-72
2022/07/14 02:13:13;;;;;;;0.00;0.00;;;;;;;;;;5071319;28;20225;-71
2022/07/14 02:15:40;;;;;;;0.00;0.00;;;;;;;;;;5069379;28;20759;-72
2022/07/14 02:18:07;;;;;;;0.00;0.00;;;;;;;;;;5072362;28;20304;-72
2022/07/14 02:20:35;;;;;;;0.00;0.00;;;;;;;;;;5068229;28;20194;-71
2022/07/14 02:23:04;;;;;;;0.00;0.00;;;;;;;;;;5068961;28;20264;-71
2022/07/14 02:25:31;;;;;;;0.00;0.00;;;;;;;;;;5076221;28;20754;-71
2022/07/14 02:27:59;;;;;;;0.00;0.00;;;;;;;;;;5091914;28;20282;-72
2022/07/14 02:30:28;;;;;;;0.00;0.00;;;;;;;;;;5085799;28;20194;-71
2022/07/14 02:32:55;;;;;;;0.00;0.00;;;17.70;99.90;;;;;;5082536;28;20226;-71
2022/07/14 02:35:23;;;;;;;0.00;0.00;;;;;;;;;;5068133;28;20222;-72
2022/07/14 02:37:50;;;;;;;0.00;0.00;;;;;;;;;;5089660;28;20244;-72
2022/07/14 02:40:17;;;;;;;0.00;0.00;;;16.90;99.90;;;;;;5067209;28;20202;-71
2022/07/14 02:42:44;;;;;;;0.00;0.00;;;17.40;99.90;;;;;;5067927;28;20216;-71
2022/07/14 02:45:11;;;;;;;0.00;0.00;;;17.30;99.90;;;;;;5066581;28;20217;-71
2022/07/14 02:47:40;;;;;;;0.00;0.00;;;;;;;;;;5082211;28;20191;-71
2022/07/14 02:50:09;;;;;;;0.00;0.00;;;;;;;;;;5067467;28;20193;-71
2022/07/14 02:52:40;;;;;;;0.00;0.00;;;;;;;;;;5066045;28;20213;-71
2022/07/14 02:55:07;;;;;;;0.00;0.00;;;17.20;99.90;;;;;;5084820;28;20218;-71
2022/07/14 02:57:38;;;;;;;0.00;0.00;;;17.20;99.90;;;;;;5081721;28;20723;-71
2022/07/14 03:00:06;;;;;;;0.00;0.00;;;17.10;99.90;;;;;;5067358;28;20193;-71
2022/07/14 03:02:34;;;;;;;0.00;0.00;;;;;;;;;;5067048;28;20289;-71
2022/07/14 03:05:04;;;;;;;0.00;0.00;;;17.10;99.90;;;;;;5083667;28;20301;-71
2022/07/14 03:07:34;;;;;;;0.00;0.00;;;17.10;99.90;;;;;;5067956;28;20200;-71
2022/07/14 03:10:01;;;;;;;0.00;0.00;;;17.10;99.90;;;;;;5063645;28;20194;-70
2022/07/14 03:12:29;;;;;;;0.00;0.00;;;17.00;99.90;;;;;;5063960;28;20197;-72
2022/07/14 03:14:56;;;;;;;0.00;0.00;;;17.00;99.90;;;;;;5086514;28;20282;-71
2022/07/14 03:17:24;;;;;;;0.00;0.00;;;;;;;;;;5083089;28;20217;-72
2022/07/14 03:19:51;;;;;;;0.00;0.00;;;17.00;99.90;;;;;;5068837;28;20213;-72
2022/07/14 03:22:20;;;;;;;0.00;0.00;;;17.00;99.90;;;;;;5072010;28;20205;-71
2022/07/14 03:24:48;;;;;;;0.00;0.00;;;17.00;99.90;;;;;;5086924;28;20218;-71
2022/07/14 03:27:15;;;;;;;0.00;0.00;;;17.00;99.90;;;;;;5066737;28;20194;-71
2022/07/14 03:29:43;;;;;;;0.00;0.00;;;17.00;99.90;;;;;;5085443;28;20202;-71
2022/07/14 03:32:12;;;;;;;0.00;0.00;;;17.00;99.90;;;;;;5065296;28;20198;-70
2022/07/14 03:34:39;;;;;;;0.00;0.00;;;17.00;99.90;;;;;;5066282;28;20220;-71
2022/07/14 03:37:06;;;;;;;0.00;0.00;;;17.00;99.90;;;;;;5068947;28;20217;-71
2022/07/14 03:39:46;;;;;;;0.00;0.00;;;17.30;99.90;;;;;;5077063;28;20200;-71
2022/07/14 03:42:15;;;;;;;0.00;0.00;;;;;;;;;;5086473;28;20208;-71
2022/07/14 03:44:44;;;;;;;0.00;0.00;;;16.80;99.90;;;;;;5089979;28;20225;-70
2022/07/14 03:47:12;;;;;;;0.00;0.00;;;16.90;99.90;;;;;;5088148;28;20586;-70
2022/07/14 03:49:39;;;;;;;0.00;0.00;;;17.10;99.90;;;;;;5075788;28;20206;-71
2022/07/14 03:52:07;;;;;;;0.00;0.00;;;17.10;99.90;;;;;;5070998;28;20194;-71
2022/07/14 03:54:34;;;;;;;0.00;0.00;;;17.20;99.90;;;;;;5068840;28;20228;-71
2022/07/14 03:57:04;;;;;;;0.00;0.00;;;17.40;99.90;;;;;;5075613;28;20234;-71
2022/07/14 03:59:40;;;;;;;0.00;0.00;;;17.40;99.90;;;;;;5071417;28;20197;-70
2022/07/14 04:02:09;;;;;;;0.00;0.00;;;17.60;99.90;;;;;;5068817;28;20200;-71
2022/07/14 04:04:36;;;;;;;0.00;0.00;;;17.60;99.90;;;;;;5071266;28;20214;-71
2022/07/14 04:07:04;;;;;;;0.00;0.00;;;17.70;99.90;;;;;;5070514;28;20209;-71
2022/07/14 04:09:32;;;;;;;0.00;0.00;;;17.80;99.90;;;;;;5065314;28;20206;-71
2022/07/14 04:12:00;;;;;;;0.00;0.00;;;17.80;99.90;;;;;;5072829;28;20194;-72
2022/07/14 04:14:28;;;;;;;0.00;0.00;;;17.90;99.90;;;;;;5070443;28;20230;-71
2022/07/14 04:16:57;;;;;;;0.00;0.00;;;17.90;99.90;;;;;;5068191;28;20217;-72
2022/07/14 04:19:24;;;;;;;0.00;0.00;;;17.90;99.90;;;;;;5073057;28;20209;-71
2022/07/14 04:21:51;;;;;;;0.00;0.00;;;17.90;99.90;;;;;;5069835;28;20229;-71
2022/07/14 04:24:18;;;;;;;0.00;0.00;;;17.90;99.90;;;;;;5077517;28;20224;-71
2022/07/14 04:26:46;;;;;;;0.00;0.00;;;17.90;99.90;;;;;;5066927;28;20194;-71
2022/07/14 04:29:13;;;;;;;0.00;0.00;;;17.90;99.90;;;;;;5084905;28;20580;-72
2022/07/14 04:31:43;;;;;;;0.00;0.00;;;17.80;99.90;;;;;;5061018;28;20217;-72
2022/07/14 04:34:23;;;;;;;0.00;0.00;;;17.90;99.90;;;;;;5063474;28;20225;-71
2022/07/14 04:36:50;;;;;;;0.00;0.00;;;17.90;99.90;;;;;;5067912;28;20208;-74
2022/07/14 04:39:17;;;;;;;0.00;0.00;;;17.80;99.90;;;;;;5088315;28;20222;-74
2022/07/14 04:41:45;;;;;;;0.00;0.00;;;17.70;99.90;;;;;;5080934;28;20543;-73
2022/07/14 04:44:12;;;;;;;0.00;0.00;;;17.70;99.90;;;;;;5071540;28;20213;-70
2022/07/14 04:46:45;;;;;;;0.00;0.00;;;17.60;99.90;;;;;;5077997;28;20195;-72
2022/07/14 04:52:04;;;;;;;0.00;0.00;;;17.60;99.90;;;;;;5059926;28;20198;-72
2022/07/14 04:54:52;;;;;;;0.00;0.00;;;17.60;99.90;;;;;;5076205;28;20220;-73
2022/07/14 04:57:39;;;;;;;0.00;0.00;;;17.60;99.90;;;;;;5049931;28;20210;-73
2022/07/14 05:00:12;;;;;;;0.00;0.00;;;17.60;99.90;;;;;;5082843;28;20194;-72
2022/07/14 05:02:41;;;;;;;0.00;0.00;;;17.70;99.90;;;;;;5074238;28;20224;-71
2022/07/14 05:05:09;;;;;;;0.00;0.00;;;17.70;99.90;;;;;;5073232;28;20205;-72
2022/07/14 05:07:36;;;;;;;0.00;0.00;;;17.80;99.90;;;;;;5090581;28;20659;-71
2022/07/14 05:10:08;;;;;;;0.00;0.00;;;17.90;99.90;;;;;;5086738;28;20192;-71
2022/07/14 05:12:36;;;;;;;0.00;0.00;;;17.90;99.90;;;;;;5071964;28;20202;-71
2022/07/14 05:15:03;;;;;;;0.00;0.00;;;18.10;99.90;;;;;;5071982;28;20309;-72
2022/07/14 05:17:31;;;;;;;0.00;0.00;;;18.30;99.90;;;;;;5069707;28;20206;-71
2022/07/14 05:20:03;;;;;;;0.00;0.00;;;18.40;99.90;;;;;;5069505;28;20210;-72
2022/07/14 05:22:35;;;;;;;0.00;0.00;;;18.60;99.90;;;;;;5073997;28;20198;-71
2022/07/14 05:25:07;;;;;;;0.00;0.00;;;18.80;99.90;;;;;;5096146;28;20786;-72
2022/07/14 05:27:34;;;;;;;0.00;0.00;;;19.00;99.90;;;;;;5075365;28;20197;-71
2022/07/14 05:30:00;;;;;;;0.00;0.00;;;19.00;99.90;;;;;;5089537;28;20197;-72
2022/07/14 05:32:28;;;;;;;0.00;0.00;;;19.10;99.90;;;;;;5075661;28;20223;-72
2022/07/14 05:34:55;;;;;;;0.00;0.00;;;19.20;99.90;;;;;;5070524;28;20218;-71
2022/07/14 05:37:25;;;;;;;0.00;0.00;;;19.30;99.90;;;;;;5067283;28;20193;-70
2022/07/14 05:39:52;;;;;;;0.00;0.00;;;19.30;99.90;;;;;;5071150;28;20727;-73
2022/07/14 05:42:20;;;;;;;0.00;0.00;;;19.40;99.90;;;;;;5067339;28;20229;-72
2022/07/14 05:44:47;;;;;;;0.10;0.10;;;19.40;99.90;;;;;;5070127;28;20209;-71
2022/07/14 05:47:15;;;;;;;0.00;0.00;;;19.50;99.90;;;;;;5068739;28;20207;-72
2022/07/14 05:49:43;;;;;;;0.00;0.00;;;19.60;99.90;;;;;;5080570;28;20259;-72
2022/07/14 05:52:11;;;;;;;0.00;0.00;;;19.70;99.90;;;;;;5071495;28;20194;-72
2022/07/14 05:54:40;;;;;;;0.00;0.00;;;19.90;99.90;;;;;;5066001;28;20221;-72
2022/07/14 05:57:09;;;;;;;0.00;0.00;;;19.90;99.90;;;;;;5066757;28;20201;-71
2022/07/14 05:59:35;;;;;;;0.00;0.00;;;20.00;99.90;;;;;;5084894;28;20202;-72
2022/07/14 06:02:03;;;;;;;0.00;0.00;;;20.10;99.90;;;;;;5069233;28;20209;-72
2022/07/14 06:04:31;;;;;;;0.00;0.00;;;20.20;99.90;;;;;;5067197;28;20218;-72
2022/07/14 06:07:01;;;;;;;0.00;0.00;;;20.40;99.90;;;;;;5085811;28;20198;-71
2022/07/14 06:09:28;;;;;;;0.00;0.00;;;20.40;99.90;;;;;;5066293;28;20281;-72
2022/07/14 06:11:58;;;;;;;0.00;0.00;;;20.50;99.90;;;;;;5071259;28;20272;-73
2022/07/14 06:14:26;;;;;;;0.00;0.00;;;20.60;99.90;;;;;;5069255;28;20210;-71
2022/07/14 06:16:54;;;;;;;0.00;0.00;;;20.60;99.90;;;;;;5072430;28;20236;-73
2022/07/14 06:19:21;;;;;;;0.00;0.00;;;20.60;99.90;;;;;;5084898;28;20240;-71
2022/07/14 06:21:49;;;;;;;0.00;0.00;;;;;;;;;;5082974;28;20214;-72
2022/07/14 06:24:16;;;;;;;0.00;0.00;;;20.70;99.90;;;;;;5094815;28;20228;-72
2022/07/14 06:26:44;;;;;;;0.00;0.00;;;20.90;99.90;;;;;;5087794;28;20293;-72
2022/07/14 06:29:13;;;;;;;0.00;0.00;;;21.00;99.90;;;;;;5069779;28;20285;-70
2022/07/14 06:31:41;;;;;;;0.00;0.00;;;21.00;99.90;;;;;;5064776;28;20244;-73
2022/07/14 06:34:11;;;;;;;0.00;0.00;;;21.20;99.90;;;;;;5068728;28;20213;-72
2022/07/14 06:37:00;;;;;;;0.00;0.00;;;21.20;99.90;;;;;;5075128;28;20210;-73
2022/07/14 06:39:27;;;;;;;0.00;0.00;;;21.20;99.90;;;;;;5071157;28;20222;-72
2022/07/14 06:41:55;;;;;;;0.00;0.00;;;21.30;99.90;;;;;;5067627;28;20215;-73
2022/07/14 06:44:28;;;;;;;0.00;0.00;;;21.30;99.90;;;;;;5069095;28;20217;-72
2022/07/14 06:46:55;;;;;;;0.00;0.00;;;21.30;99.90;;;;;;5069187;28;20240;-72
2022/07/14 06:49:22;;;;;;;0.00;0.00;;;21.30;99.90;;;;;;5085982;28;20271;-72
2022/07/14 06:51:49;;;;;;;0.00;0.00;;;21.40;99.90;;;;;;5068693;28;20632;-72
2022/07/14 06:54:17;;;;;;;0.00;0.00;;;21.50;99.90;;;;;;5069335;28;20223;-72
2022/07/14 06:56:44;;;;;;;0.00;0.00;;;21.60;99.90;;;;;;5087902;28;20201;-73
2022/07/14 06:59:11;;;;;;;0.00;0.00;;;21.60;99.90;;;;;;5069092;28;20213;-73
2022/07/14 07:01:39;;;;;;;0.00;0.00;;;21.60;99.90;;;;;;5084447;28;20204;-73
2022/07/14 07:04:06;;;;;;;0.00;0.00;;;21.60;99.90;;;;;;5068563;28;20307;-72
2022/07/14 07:06:45;;;;;;;0.00;0.00;;;21.70;99.90;;;;;;5083721;28;20205;-72
2022/07/14 07:09:12;;;;;;;0.00;0.00;;;21.80;99.90;;;;;;5066310;28;20201;-72
2022/07/14 07:11:40;;;;;;;0.00;0.00;;;21.90;99.90;;;;;;5080668;28;20268;-72
2022/07/14 07:14:07;;;;;;;0.00;0.00;;;21.90;99.90;;;;;;5084859;28;20214;-72
2022/07/14 07:16:34;;;;;;;0.00;0.00;;;22.00;99.90;;;;;;5066662;28;20198;-73
2022/07/14 07:19:03;;;;;;;0.00;0.00;;;22.00;99.90;;;;;;5092488;28;20312;-72
2022/07/14 07:21:30;;;;;;;0.00;0.00;;;22.00;99.90;;;;;;5073127;28;20198;-73
2022/07/14 07:23:58;;;;;;;0.00;0.00;;;22.10;99.90;;;;;;5073099;28;20271;-71
2022/07/14 07:26:25;;;;;;;0.00;0.00;;;22.20;99.90;;;;;;5093002;28;20194;-72
2022/07/14 07:28:53;;;;;;;0.00;0.00;;;22.40;99.90;;;;;;5071996;28;20331;-72
2022/07/14 07:31:20;;;;;;;0.00;0.00;;;22.50;99.90;;;;;;5089752;28;20205;-71
2022/07/14 07:33:47;;;;;;;0.00;0.00;;;22.60;99.90;;;;;;5066862;28;20218;-72
2022/07/14 07:36:16;;;;;;;0.00;0.00;;;22.70;99.90;;;;;;5071628;28;20213;-71
2022/07/14 07:38:43;;;;;;;0.00;0.00;;;22.80;99.90;;;;;;5082746;28;20234;-72
2022/07/14 07:41:10;;;;;;;0.00;0.00;;;22.90;99.90;;;;;;5067988;28;20198;-72
2022/07/14 07:43:38;;;;;;;0.00;0.00;;;23.00;99.90;;;;;;5071925;28;20296;-72
2022/07/14 07:46:05;;;;;;;0.00;0.00;;;23.20;99.90;;;;;;5075224;28;20213;-73
2022/07/14 07:48:32;;;;;;;0.00;0.00;;;23.20;99.90;;;;;;5088247;28;20281;-73
2022/07/14 07:51:00;;;;;;;0.00;0.00;;;23.20;99.90;;;;;;5069577;28;20667;-72
2022/07/14 07:53:29;;;;;;;0.00;0.00;;;23.30;99.90;;;;;;5067029;28;20225;-71
2022/07/14 07:55:56;;;;;;;0.00;0.00;;;23.30;99.90;;;;;;5069196;28;20198;-73
2022/07/14 07:58:23;;;;;;;0.00;0.00;;;23.40;99.90;;;;;;5070788;28;20209;-72
2022/07/14 08:00:51;;;;;;;0.00;0.00;;;23.40;99.90;;;;;;5089646;28;20192;-72
2022/07/14 08:03:17;;;;;;;0.00;0.00;;;23.40;99.90;;;;;;5065478;28;20210;-71
2022/07/14 08:05:44;;;;;;;0.00;0.00;;;23.50;99.90;;;;;;5068657;28;20225;-73
2022/07/14 08:08:12;;;;;;;0.00;0.00;;;23.50;99.90;;;;;;5070939;28;20209;-72
2022/07/14 08:10:41;;;;;;;0.00;0.00;;;23.70;99.90;;;;;;5069780;28;20198;-72
2022/07/14 08:13:09;;;;;;;0.00;0.00;;;23.70;99.90;;;;;;5070197;28;20206;-72
2022/07/14 08:15:37;;;;;;;0.00;0.00;;;23.80;99.90;;;;;;5069648;28;20719;-72
2022/07/14 08:18:04;;;;;;;0.00;0.00;;;23.80;99.90;;;;;;5090032;28;20277;-73
2022/07/14 08:20:31;;;;;;;0.00;0.00;;;23.70;99.90;;;;;;5074146;28;20198;-72
2022/07/14 08:22:59;;;;;;;0.00;0.00;;;23.80;99.90;;;;;;5078629;28;20209;-72
2022/07/14 08:25:26;;;;;;;0.00;0.00;;;24.00;99.90;;;;;;5073915;28;20309;-72
2022/07/14 08:27:55;;;;;;;0.00;0.00;;;24.10;99.90;;;;;;5085228;28;20284;-72
2022/07/14 08:30:22;;;;;;;0.00;0.00;;;24.10;99.90;;;;;;5072090;28;20208;-72
2022/07/14 08:32:51;;;;;;;0.00;0.00;;;24.20;99.90;;;;;;5086464;28;20206;-73
2022/07/14 08:35:21;;;;;;;0.00;0.00;;;24.20;99.90;;;;;;5071183;28;20369;-73
2022/07/14 08:37:49;;;;;;;0.00;0.00;;;24.20;99.90;;;;;;5062003;28;20205;-72
2022/07/14 08:40:18;;;;;;;0.00;0.00;;;24.20;99.90;;;;;;5086421;28;20221;-71
2022/07/14 08:42:48;;;;;;;0.00;0.00;;;24.30;99.90;;;;;;5098411;28;20209;-73
2022/07/14 08:45:18;;;;;;;0.00;0.00;;;24.40;99.90;;;;;;5074667;28;20661;-71
2022/07/14 08:47:46;;;;;;;0.00;0.00;;;24.50;99.90;;;;;;5090783;28;20203;-72
2022/07/14 08:50:14;;;;;;;0.00;0.00;;;24.50;99.90;;;;;;5080580;28;20199;-73
2022/07/14 08:52:41;;;;;;;0.00;0.00;;;24.60;99.90;;;;;;5071368;28;20202;-71
2022/07/14 08:55:10;;;;;;;0.00;0.00;;;24.60;99.90;;;;;;5083642;28;20222;-72
2022/07/14 08:57:39;;;;;;;0.00;0.00;;;24.70;99.90;;;;;;5070817;28;20198;-72
2022/07/14 09:00:10;;;;;;;0.00;0.00;;;24.70;99.90;;;;;;5068465;28;20251;-72
2022/07/14 09:02:40;;;;;;;0.00;0.00;;;24.80;99.90;;;;;;5062607;28;20248;-72
2022/07/14 09:05:08;;;;;;;0.00;0.00;;;24.70;99.90;;;;;;5062423;28;20233;-72
2022/07/14 09:07:37;;;;;;;0.00;0.00;;;24.80;99.90;;;;;;5085935;28;20208;-72
2022/07/14 09:10:06;;;;;;;0.00;0.00;;;24.80;99.90;;;;;;5070110;28;20198;-72
2022/07/14 09:12:35;;;;;;;0.00;0.00;;;24.90;99.90;;;;;;5086403;28;20545;-72
2022/07/14 09:17:52;;;;;;;0.00;0.00;;;;;;;;;;5067071;28;20198;-71
2022/07/14 09:20:20;;;;;;;0.00;0.00;;;25.10;99.90;;;;;;5093074;28;20299;-72
2022/07/14 09:22:47;;;;;;;0.00;0.00;;;25.10;99.90;;;;;;5089590;28;20300;-72
2022/07/14 09:25:16;;;;;;;0.00;0.00;;;25.10;99.90;;;;;;5069638;28;20300;-72
2022/07/14 09:27:46;;;;;;;0.00;0.00;;;25.20;99.90;;;;;;5085685;28;20647;-72
2022/07/14 09:30:14;;;;;;;0.00;0.00;;;25.30;99.90;;;;;;5085985;28;20194;-72
2022/07/14 09:32:45;;;;;;;0.00;0.00;;;25.30;99.90;;;;;;5072471;28;20202;-72
2022/07/14 09:35:16;;;;;;;0.00;0.00;;;;;;;;;;5088819;28;20218;-71
2022/07/14 09:37:43;;;;;;;0.00;0.00;;;25.30;99.90;;;;;;5072083;28;20247;-73
2022/07/14 09:40:15;;;;;;;0.00;0.00;;;25.40;99.90;;;;;;5086964;28;20604;-71
2022/07/14 09:42:51;;;;;;;0.00;0.00;;;25.30;99.90;;;;;;5070854;28;20309;-73
2022/07/14 09:45:20;;;;;;;0.00;0.00;;;25.30;99.90;;;;;;5084279;28;20300;-72
2022/07/14 09:48:02;;;;;;;0.00;0.00;;;25.20;99.90;;;;;;5069766;28;20575;-72
2022/07/14 09:50:49;;;;;;;0.00;0.00;;;25.20;99.90;;;;;;5085172;28;20198;-73
2022/07/14 09:53:24;;;;;;;0.00;0.00;;;25.30;99.90;;;;;;5084157;28;20212;-74
2022/07/14 09:56:00;;;;;;;0.00;0.00;;;25.20;99.90;;;;;;5069001;28;20213;-73
2022/07/14 09:58:29;;;;;;;0.00;0.00;;;25.30;99.90;;;;;;5072492;28;20206;-71
2022/07/14 10:01:03;;;;;;;0.00;0.00;;;25.40;99.90;;;;;;5087798;28;20221;-71
2022/07/14 10:03:31;;;;;;;0.00;0.00;;;25.60;99.90;;;;;;5092084;28;20197;-72
2022/07/14 10:06:02;;;;;;;0.00;0.00;;;25.70;99.90;;;;;;5089401;28;20186;-72
2022/07/14 10:08:31;;;;;;;0.00;0.00;;;25.80;99.90;;;;;;5069901;28;20200;-71
2022/07/14 10:11:00;;;;;;;0.00;0.00;;;25.80;99.90;;;;;;5084605;28;20194;-71
2022/07/14 10:13:28;;;;;;;0.00;0.00;;;25.90;99.90;;;;;;5084369;28;20229;-73
2022/07/14 10:15:56;;;;;;;0.00;0.00;;;25.90;99.90;;;;;;5067813;28;20209;-72
2022/07/14 10:18:25;;;;;;;0.00;0.00;;;25.90;99.90;;;;;;5069930;28;20204;-71
2022/07/14 10:20:54;;;;;;;0.00;0.00;;;25.90;99.90;;;;;;5085997;28;20221;-72
2022/07/14 10:23:24;;;;;;;0.00;0.00;;;25.90;99.90;;;;;;5077890;28;20206;-72
2022/07/14 10:25:52;;;;;;;0.00;0.00;;;25.90;99.90;;;;;;5072338;28;20198;-73
2022/07/14 10:28:20;;;;;;;0.00;0.00;;;25.80;99.90;;;;;;5082205;28;20200;-72
2022/07/14 10:30:54;;;;;;;0.00;0.00;;;25.80;99.90;;;;;;5067741;28;20209;-72
2022/07/14 10:33:29;;;;;;;0.00;0.00;;;25.80;99.90;;;;;;5079798;28;20232;-73
2022/07/14 10:36:08;;;;;;;0.00;0.00;;;25.90;99.90;;;;;;5076288;28;20203;-73
2022/07/14 10:39:00;;;;;;;0.00;0.00;;;25.90;99.90;;;;;;5083023;28;20193;-71
2022/07/14 10:41:59;;;;;;;0.00;0.00;;;26.00;99.90;;;;;;5085194;28;20202;-73
2022/07/14 10:44:29;;;;;;;0.00;0.00;;;26.10;99.90;;;;;;5078507;28;20234;-74
2022/07/14 10:47:07;;;;;;;0.00;0.00;;;26.10;99.90;;;;;;5080129;28;20203;-72
2022/07/14 10:50:00;;;;;;;0.00;0.00;;;26.10;99.90;;;;;;5077445;28;20201;-72
2022/07/14 10:52:29;;;;;;;0.00;0.00;;;26.00;99.90;;;;;;5086254;28;20278;-72
2022/07/14 10:55:18;;;;;;;0.00;0.00;;;26.00;99.90;;;;;;5064596;28;20321;-73
2022/07/14 10:58:22;;;;;;;0.00;0.00;;;25.90;99.90;;;;;;5075489;28;20671;-72
2022/07/14 11:00:58;;;;;;;0.00;0.00;;;25.90;99.90;;;;;;5080828;28;20229;-72
2022/07/14 11:03:28;;;;;;;0.00;0.00;;;25.80;99.90;;;;;;5068079;28;20287;-72
2022/07/14 11:06:19;;;;;;;0.00;0.00;;;25.90;99.90;;;;;;5067118;28;20231;-72
2022/07/14 11:12:22;;;;;;;0.00;0.00;;;26.10;99.90;;;;;;5067583;28;20254;-72
2022/07/14 11:14:49;;;;;;;0.00;0.00;;;;;;;;;;5068092;28;20217;-71
2022/07/14 11:17:37;;;;;;;0.00;0.00;;;;;;;;;;5075533;28;20213;-71
2022/07/14 11:20:06;;;;;;;0.00;0.00;;;;;;;;;;5085545;28;20290;-71
2022/07/14 11:22:33;;;;;;;0.00;0.00;;;;;;;;;;5071857;28;20293;-71
2022/07/14 11:25:01;;;;;;;0.00;0.00;;;;;;;;;;5068597;28;20222;-72
2022/07/14 11:27:32;;;;;;;0.00;0.00;;;;;;;;;;5069281;28;20259;-72
2022/07/14 11:30:25;;;;;;;0.00;0.00;;;27.00;99.90;;;;;;5086378;28;20285;-72
2022/07/14 11:33:04;;;;;;;0.00;0.00;;;27.00;99.90;;;;;;5068398;28;20233;-71
2022/07/14 11:39:22;;;;;;;0.00;0.00;;;27.20;99.90;;;;;;5006892;28;20199;-71
2022/07/14 11:41:52;;;;;;;0.00;0.00;;;27.20;99.90;;;;;;5020142;28;20212;-72
2022/07/14 11:44:48;;;;;;;0.00;0.00;;;27.20;99.90;;;;;;5053387;28;20230;-73
2022/07/14 11:47:17;;;;;;;0.00;0.00;;;27.20;99.90;;;;;;5086003;28;20520;-72
2022/07/14 11:49:53;;;;;;;0.00;0.00;;;27.10;99.90;;;;;;5082651;28;20284;-73
2022/07/14 11:52:26;;;;;;;0.00;0.00;;;27.20;99.90;;;;;;5065900;28;20206;-73
2022/07/14 11:54:54;;;;;;;0.00;0.00;;;27.10;99.90;;;;;;5066679;28;20246;-72
2022/07/14 11:57:22;;;;;;;0.00;0.00;;;27.20;99.90;;;;;;5062734;28;20198;-71
2022/07/14 11:59:51;;;;;;;0.00;0.00;;;;;;;;;;5080371;28;20241;-71
2022/07/14 12:02:20;;;;;;;0.00;0.00;;;;;;;;;;5068172;28;20209;-71
2022/07/14 12:04:52;;;;;;;0.00;0.00;;;;;;;;;;5071609;28;20214;-71
2022/07/14 12:07:19;;;;;;;0.00;0.00;;;;;;;;;;5070962;28;20297;-73
2022/07/14 12:09:47;;;;;;;0.00;0.00;;;27.60;99.90;;;;;;5088125;28;20194;-72
2022/07/14 12:12:15;;;;;;;0.00;0.00;;;27.60;99.90;;;;;;5090981;28;20205;-72
2022/07/14 12:14:53;;;;;;;0.00;0.00;;;27.60;99.90;;;;;;5085498;28;20690;-72
2022/07/14 12:17:22;;;;;;;0.00;0.00;;;27.50;99.90;;;;;;5068465;28;20202;-71
2022/07/14 12:19:49;;;;;;;0.00;0.00;;;27.50;99.90;;;;;;5088003;28;20312;-72
2022/07/14 12:22:16;;;;;;;0.00;0.00;;;27.50;99.90;;;;;;5089510;28;20627;-72
2022/07/14 12:24:43;;;;;;;0.00;0.00;;;27.50;99.90;;;;;;5099382;28;20222;-73
2022/07/14 12:27:12;;;;;;;0.00;0.00;;;27.20;99.90;;;;;;5088557;28;20213;-73
2022/07/14 12:29:47;;;;;;;0.00;0.00;;;27.20;99.90;;;;;;5087878;28;20301;-73
2022/07/14 12:32:17;;;;;;;0.00;0.00;;;27.00;99.90;;;;;;5071253;28;20255;-71
2022/07/14 12:34:45;;;;;;;0.00;0.00;;;27.00;99.90;;;;;;5092785;28;20762;-73
2022/07/14 12:37:12;;;;;;;0.00;0.00;;;27.00;99.90;;;;;;5092785;28;20216;-74
2022/07/14 12:39:41;;;;;;;0.00;0.00;;;26.80;99.90;;;;;;5062824;28;20213;-72
2022/07/14 12:42:09;;;;;;;0.00;0.00;;;26.80;99.90;;;;;;5060874;28;20242;-72
2022/07/14 12:44:59;;;;;;;0.00;0.00;;;26.80;99.90;;;;;;5068434;28;20211;-72
2022/07/14 12:47:28;;;;;;;0.00;0.00;;;26.80;99.90;;;;;;5067985;28;20623;-74
2022/07/14 12:49:56;;;;;;;0.00;0.00;;;26.70;99.90;;;;;;5091561;28;20186;-72
2022/07/14 12:52:23;;;;;;;0.00;0.00;;;26.60;99.90;;;;;;5085332;28;20215;-72
2022/07/14 12:54:50;;;;;;;0.00;0.00;;;26.60;99.90;;;;;;5081607;28;20217;-73
2022/07/14 12:57:22;;;;;;;0.00;0.00;;;26.70;99.90;;;;;;5081350;28;20201;-73
2022/07/14 12:59:49;;;;;;;0.00;0.00;;;26.60;99.90;;;;;;5062553;28;20651;-72
2022/07/14 13:02:22;;;;;;;0.00;0.00;;;26.60;99.90;;;;;;5080258;28;20225;-72
2022/07/14 13:04:52;;;;;;;0.00;0.00;;;26.40;99.90;;;;;;5069777;28;20272;-72
2022/07/14 13:07:21;;;;;;;0.00;0.00;;;26.40;99.90;;;;;;5064722;28;20213;-72
2022/07/14 13:10:10;;;;;;;0.00;0.00;;;26.30;99.90;;;;;;5078185;28;20194;-72
2022/07/14 13:12:39;;;;;;;0.00;0.00;;;26.20;99.90;;;;;;5079454;28;20297;-71
2022/07/14 13:15:10;;;;;;;0.00;0.00;;;26.20;99.90;;;;;;5079703;28;20225;-71
2022/07/14 13:17:55;;;;;;;0.00;0.00;;;26.20;99.90;;;;;;5067175;28;20195;-72
2022/07/14 13:20:54;;;;;;;0.00;0.00;;;26.10;99.90;;;;;;5076393;28;20225;-72
2022/07/14 13:23:27;;;;;;;0.00;0.00;;;26.10;99.90;;;;;;5069052;28;20224;-73
2022/07/14 13:25:55;;;;;;;0.00;0.00;;;26.10;99.90;;;;;;5079276;28;20236;-72
2022/07/14 13:28:35;;;;;;;0.00;0.00;;;26.00;99.90;;;;;;5087381;28;20205;-72
2022/07/14 13:31:03;;;;;;;0.00;0.00;;;26.00;99.90;;;;;;5066298;28;20297;-72